createdAt,value
2024-05-09T00:02:20.385Z,2.35
2024-05-09T00:05:26.067Z,2.85
2024-05-09T00:08:31.860Z,2.67
2024-05-09T00:11:37.747Z,2.75
2024-05-09T00:14:43.648Z,2.70
2024-05-09T00:17:52.106Z,2.67
2024-05-09T00:20:58.167Z,2.60
2024-05-09T00:24:03.899Z,2.90
2024-05-09T00:27:11.263Z,2.65
2024-05-09T00:30:24.410Z,2.80
2024-05-09T00:33:40.019Z,2.78
2024-05-09T00:36:45.753Z,2.80
2024-05-09T00:39:51.331Z,2.75
2024-05-09T00:42:56.883Z,2.67
2024-05-09T00:46:02.637Z,2.40
2024-05-09T00:49:12.298Z,2.85
2024-05-09T00:52:18.085Z,2.70
2024-05-09T00:55:24.056Z,3.00
2024-05-09T00:58:31.247Z,2.92
2024-05-09T01:01:37.512Z,2.80
2024-05-09T01:04:46.363Z,2.83
2024-05-09T01:09:07.719Z,3.28
2024-05-09T01:12:13.613Z,2.78
2024-05-09T01:15:19.533Z,3.13
2024-05-09T01:18:25.274Z,3.30
2024-05-09T01:21:33.593Z,3.25
2024-05-09T01:24:41.782Z,3.10
2024-05-09T01:27:47.451Z,3.40
2024-05-09T01:30:53.090Z,3.40
2024-05-09T01:33:58.760Z,3.50
2024-05-09T01:37:04.312Z,3.05
2024-05-09T01:40:18.533Z,3.67
2024-05-09T01:43:28.049Z,3.60
2024-05-09T01:46:33.591Z,3.33
2024-05-09T01:49:40.228Z,3.50
2024-05-09T01:52:45.851Z,3.22
2024-05-09T01:55:54.160Z,3.67
2024-05-09T01:58:59.782Z,3.30
2024-05-09T02:02:05.525Z,3.40
2024-05-09T02:05:11.831Z,3.83
2024-05-09T02:08:18.933Z,3.50
2024-05-09T02:11:27.574Z,3.33
2024-05-09T02:14:33.258Z,3.55
2024-05-09T02:17:39.153Z,3.30
2024-05-09T02:20:45.285Z,3.05
2024-05-09T02:23:50.944Z,3.72
2024-05-09T02:26:59.135Z,3.90
2024-05-09T02:30:09.910Z,3.43
2024-05-09T02:33:21.269Z,3.72
2024-05-09T02:36:27.196Z,3.80
2024-05-09T02:39:30.136Z,3.40
2024-05-09T02:42:38.367Z,3.05
2024-05-09T02:45:41.722Z,3.30
2024-05-09T02:48:47.582Z,3.67
2024-05-09T02:51:53.337Z,3.40
2024-05-09T02:54:56.359Z,3.78
2024-05-09T02:58:05.015Z,3.28
2024-05-09T03:01:08.033Z,3.45
2024-05-09T03:04:13.629Z,3.33
2024-05-09T03:07:20.259Z,3.95
2024-05-09T03:10:28.500Z,3.70
2024-05-09T03:13:37.505Z,4.05
2024-05-09T03:16:40.423Z,3.50
2024-05-09T03:19:46.462Z,4.18
2024-05-09T03:22:54.048Z,3.88
2024-05-09T03:25:58.682Z,3.85
2024-05-09T03:29:07.020Z,3.90
2024-05-09T03:32:10.248Z,3.75
2024-05-09T03:35:16.061Z,3.45
2024-05-09T03:38:21.942Z,3.60
2024-05-09T03:41:27.676Z,3.75
2024-05-09T03:44:36.037Z,3.83
2024-05-09T03:47:39.005Z,4.07
2024-05-09T03:50:45.071Z,4.00
2024-05-09T03:53:48.171Z,3.70
2024-05-09T03:56:54.481Z,3.60
2024-05-09T04:00:00.061Z,4.00
2024-05-09T04:03:07.676Z,4.40
2024-05-09T04:06:13.122Z,3.88
2024-05-09T04:09:18.694Z,4.47
2024-05-09T04:12:21.827Z,3.70
2024-05-09T04:15:30.250Z,3.63
2024-05-09T04:18:36.060Z,4.10
2024-05-09T04:21:39.081Z,3.75
2024-05-09T04:24:44.618Z,4.15
2024-05-09T04:27:47.932Z,4.03
2024-05-09T04:30:56.188Z,3.33
2024-05-09T04:33:59.279Z,3.97
2024-05-09T04:37:05.150Z,3.70
2024-05-09T04:40:17.186Z,4.35
2024-05-09T04:43:29.285Z,4.60
2024-05-09T04:46:34.884Z,4.15
2024-05-09T04:49:40.491Z,4.30
2024-05-09T04:52:46.464Z,4.18
2024-05-09T04:55:51.351Z,4.55
2024-05-09T04:58:57.083Z,4.45
2024-05-09T05:02:02.974Z,4.93
2024-05-09T05:05:09.645Z,4.28
2024-05-09T05:08:17.437Z,4.43
2024-05-09T05:11:21.482Z,4.03
2024-05-09T05:14:27.398Z,4.45
2024-05-09T05:17:35.984Z,4.55
2024-05-09T05:20:39.289Z,4.53
2024-05-09T05:23:44.979Z,4.38
2024-05-09T05:26:48.011Z,4.38
2024-05-09T05:29:53.600Z,3.92
2024-05-09T05:32:59.368Z,4.40
2024-05-09T05:36:05.117Z,4.20
2024-05-09T05:39:08.027Z,4.07
2024-05-09T05:42:13.601Z,3.92
2024-05-09T05:45:16.704Z,3.90
2024-05-09T05:48:25.239Z,3.67
2024-05-09T05:51:28.228Z,4.05
2024-05-09T05:54:33.813Z,3.80
2024-05-09T05:57:39.372Z,4.38
2024-05-09T06:00:43.055Z,4.10
2024-05-09T06:03:51.640Z,3.83
2024-05-09T06:06:57.336Z,4.15
2024-05-09T06:10:05.281Z,3.85
2024-05-09T06:13:14.153Z,3.83
2024-05-09T06:16:17.518Z,4.65
2024-05-09T06:19:26.026Z,4.30
2024-05-09T06:22:29.232Z,4.00
2024-05-09T06:25:34.935Z,4.22
2024-05-09T06:28:38.084Z,4.28
2024-05-09T06:31:43.831Z,3.75
2024-05-09T06:34:49.758Z,3.80
2024-05-09T06:37:55.687Z,3.75
2024-05-09T06:40:58.759Z,3.47
2024-05-09T06:44:04.399Z,3.90
2024-05-09T06:47:10.183Z,3.45
2024-05-09T06:50:23.956Z,3.25
2024-05-09T06:53:33.602Z,3.10
2024-05-09T06:56:36.678Z,3.05
2024-05-09T06:59:42.315Z,3.20
2024-05-09T07:02:48.229Z,3.28
2024-05-09T07:05:56.671Z,3.00
2024-05-09T07:08:59.660Z,2.90
2024-05-09T07:12:05.355Z,3.10
2024-05-09T07:15:08.634Z,2.78
2024-05-09T07:18:17.353Z,2.88
2024-05-09T07:21:24.364Z,2.83
2024-05-09T07:24:29.953Z,3.22
2024-05-09T07:27:33.262Z,3.22
2024-05-09T07:30:38.854Z,3.42
2024-05-09T07:33:44.552Z,3.38
2024-05-09T07:36:52.775Z,2.90
2024-05-09T07:39:55.736Z,3.38
2024-05-09T07:43:01.346Z,3.30
2024-05-09T07:47:03.960Z,3.40
2024-05-09T07:53:33.829Z,3.30
2024-05-09T07:56:04.291Z,3.45
2024-05-09T07:59:07.264Z,3.20
2024-05-09T08:02:13.064Z,3.25
2024-05-09T08:05:19.073Z,3.58
2024-05-09T08:08:24.790Z,3.13
2024-05-09T08:11:30.480Z,2.70
2024-05-09T08:14:33.881Z,2.72
2024-05-09T08:17:39.632Z,2.97
2024-05-09T08:20:46.060Z,3.00
2024-05-09T08:23:51.740Z,3.20
2024-05-09T08:26:57.241Z,3.28
2024-05-09T08:30:00.333Z,3.33
2024-05-09T08:33:07.577Z,2.83
2024-05-09T08:36:11.006Z,2.70
2024-05-09T08:39:21.135Z,2.72
2024-05-09T08:42:24.726Z,3.28
2024-05-09T08:45:30.560Z,3.08
2024-05-09T08:48:34.969Z,2.88
2024-05-09T08:51:40.586Z,3.05
2024-05-09T08:54:46.148Z,3.05
2024-05-09T08:57:51.817Z,2.95
2024-05-09T09:00:55.442Z,2.92
2024-05-09T09:04:04.077Z,2.95
2024-05-09T09:07:07.359Z,3.25
2024-05-09T09:10:24.891Z,2.70
2024-05-09T09:13:33.192Z,3.22
2024-05-09T09:16:39.093Z,3.38
2024-05-09T09:19:42.501Z,2.97
2024-05-09T09:22:48.337Z,2.67
2024-05-09T09:25:54.011Z,2.70
2024-05-09T09:29:03.171Z,2.83
2024-05-09T09:32:10.732Z,2.97
2024-05-09T09:35:13.676Z,2.90
2024-05-09T09:38:21.359Z,3.08
2024-05-09T09:41:30.474Z,2.88
2024-05-09T09:44:39.556Z,2.60
2024-05-09T09:47:46.047Z,2.30
2024-05-09T09:50:52.089Z,2.22
2024-05-09T09:53:55.691Z,2.75
2024-05-09T09:57:04.161Z,2.78
2024-05-09T10:00:11.765Z,2.78
2024-05-09T10:03:20.256Z,2.65
2024-05-09T10:06:23.716Z,2.50
2024-05-09T10:09:29.647Z,2.63
2024-05-09T10:12:35.635Z,2.60
2024-05-09T10:15:48.270Z,2.50
2024-05-09T10:18:51.561Z,2.47
2024-05-09T10:22:04.375Z,2.80
2024-05-09T10:25:10.824Z,3.00
2024-05-09T10:28:16.563Z,3.17
2024-05-09T10:31:23.624Z,3.20
2024-05-09T10:34:37.362Z,2.92
2024-05-09T10:37:40.351Z,2.85
2024-05-09T10:40:46.533Z,2.58
2024-05-09T10:43:52.398Z,2.78
2024-05-09T10:46:58.124Z,3.08
2024-05-09T10:50:01.260Z,2.80
2024-05-09T10:53:07.405Z,2.78
2024-05-09T10:56:11.054Z,2.55
2024-05-09T10:59:19.280Z,2.63
2024-05-09T11:02:22.538Z,2.60
2024-05-09T11:05:28.638Z,2.47
2024-05-09T11:08:32.469Z,2.60
2024-05-09T11:11:38.329Z,2.60
2024-05-09T11:14:53.098Z,2.85
2024-05-09T11:17:58.879Z,2.50
2024-05-09T11:21:02.475Z,2.80
2024-05-09T11:24:11.212Z,2.47
2024-05-09T11:27:14.747Z,2.42
2024-05-09T11:30:29.803Z,2.72
2024-05-09T11:33:40.254Z,2.75
2024-05-09T11:36:46.097Z,2.90
2024-05-09T11:39:49.082Z,2.67
2024-05-09T11:42:54.789Z,2.90
2024-05-09T11:46:04.010Z,2.65
2024-05-09T11:49:10.176Z,2.95
2024-05-09T11:52:13.801Z,2.80
2024-05-09T11:55:20.185Z,3.03
2024-05-09T11:58:23.751Z,2.60
2024-05-09T12:01:32.433Z,3.08
2024-05-09T12:04:38.427Z,2.83
2024-05-09T12:07:44.833Z,2.90
2024-05-09T12:10:50.645Z,3.08
2024-05-09T12:13:53.741Z,2.60
2024-05-09T12:17:03.888Z,2.78
2024-05-09T12:20:14.282Z,2.85
2024-05-09T12:23:26.692Z,2.83
2024-05-09T12:26:29.755Z,2.92
2024-05-09T12:29:38.247Z,2.80
2024-05-09T12:32:46.310Z,3.03
2024-05-09T12:35:51.991Z,3.22
2024-05-09T12:38:55.159Z,3.42
2024-05-09T12:42:00.853Z,3.20
2024-05-09T12:45:03.974Z,3.38
2024-05-09T12:48:13.256Z,3.08
2024-05-09T12:51:19.205Z,3.10
2024-05-09T12:54:22.188Z,3.50
2024-05-09T12:57:28.164Z,3.50
2024-05-09T13:00:33.957Z,3.30
2024-05-09T13:03:43.003Z,3.25
2024-05-09T13:06:46.083Z,4.30
2024-05-09T13:09:51.777Z,3.17
2024-05-09T13:12:54.745Z,3.65
2024-05-09T13:16:00.491Z,3.35
2024-05-09T13:19:06.218Z,3.20
2024-05-09T13:22:12.033Z,3.17
2024-05-09T13:25:15.235Z,3.10
2024-05-09T13:28:22.917Z,3.30
2024-05-09T13:31:26.428Z,2.97
2024-05-09T13:34:34.836Z,3.33
2024-05-09T13:37:37.833Z,3.03
2024-05-09T13:40:44.188Z,2.90
2024-05-09T13:43:49.968Z,2.90
2024-05-09T13:46:53.181Z,3.50
2024-05-09T13:50:02.669Z,3.25
2024-05-09T13:53:07.622Z,3.97
2024-05-09T13:56:14.162Z,3.40
2024-05-09T13:59:17.205Z,3.13
2024-05-09T14:02:23.030Z,2.97
2024-05-09T14:05:28.749Z,3.70
2024-05-09T14:08:34.435Z,3.30
2024-05-09T14:11:37.596Z,3.30
2024-05-09T14:14:43.199Z,3.58
2024-05-09T14:17:47.442Z,3.47
2024-05-09T14:20:55.650Z,3.50
2024-05-09T14:24:01.201Z,3.35
2024-05-09T14:27:07.473Z,3.33
2024-05-09T14:30:22.083Z,3.28
2024-05-09T14:33:30.898Z,3.70
2024-05-09T14:36:39.272Z,3.60
2024-05-09T14:39:42.272Z,3.60
2024-05-09T14:42:47.967Z,3.58
2024-05-09T14:45:51.008Z,3.33
2024-05-09T14:48:58.508Z,3.50
2024-05-09T14:52:07.531Z,3.15
2024-05-09T14:55:12.324Z,3.83
2024-05-09T14:58:18.527Z,3.55
2024-05-09T15:01:24.174Z,3.47
2024-05-09T15:04:30.378Z,3.53
2024-05-09T15:07:36.132Z,3.50
2024-05-09T15:10:41.725Z,3.47
2024-05-09T15:13:44.782Z,3.80
2024-05-09T15:16:50.794Z,3.80
2024-05-09T15:19:53.958Z,4.00
2024-05-09T15:23:02.405Z,4.30
2024-05-09T15:26:05.712Z,4.10
2024-05-09T15:29:11.318Z,4.38
2024-05-09T15:32:14.871Z,4.25
2024-05-09T15:35:20.837Z,4.50
2024-05-09T15:38:29.307Z,4.00
2024-05-09T15:41:34.872Z,4.50
2024-05-09T15:44:37.858Z,4.70
2024-05-09T15:47:43.635Z,5.10
2024-05-09T15:50:46.703Z,4.28
2024-05-09T15:53:54.958Z,5.60
2024-05-09T15:56:57.959Z,4.93
2024-05-09T16:00:05.905Z,5.70
2024-05-09T16:03:17.857Z,5.32
2024-05-09T16:06:23.520Z,5.88
2024-05-09T16:09:29.142Z,5.57
2024-05-09T16:12:34.805Z,5.70
2024-05-09T16:15:40.651Z,5.70
2024-05-09T16:18:43.932Z,5.38
2024-05-09T16:21:49.588Z,5.50
2024-05-09T16:24:58.049Z,4.95
2024-05-09T16:28:01.918Z,5.60
2024-05-09T16:31:08.290Z,5.25
2024-05-09T16:34:11.519Z,5.55
2024-05-09T16:37:17.811Z,5.03
2024-05-09T16:40:34.694Z,5.38
2024-05-09T16:43:41.989Z,5.35
2024-05-09T16:46:47.677Z,9.50
2024-05-09T16:49:50.675Z,10.95
2024-05-09T16:52:56.238Z,7.90
2024-05-09T16:56:02.426Z,6.70
2024-05-09T16:59:08.161Z,6.25
2024-05-09T17:02:14.128Z,5.88
2024-05-09T17:05:21.741Z,5.60
2024-05-09T17:08:24.773Z,5.40
2024-05-09T17:11:34.562Z,6.00
2024-05-09T17:14:40.770Z,5.50
2024-05-09T17:17:47.213Z,5.88
2024-05-09T17:20:53.110Z,5.68
2024-05-09T17:23:56.076Z,6.57
2024-05-09T17:27:04.499Z,7.43
2024-05-09T17:33:15.473Z,7.85
2024-05-09T17:36:21.186Z,7.65
2024-05-09T17:39:24.885Z,6.82
2024-05-09T17:42:33.297Z,8.77
2024-05-09T17:45:37.731Z,8.38
2024-05-09T17:48:43.552Z,8.27
2024-05-09T17:51:55.220Z,8.10
2024-05-09T17:54:58.557Z,7.40
2024-05-09T17:58:07.608Z,6.60
2024-05-09T18:01:14.043Z,6.82
2024-05-09T18:04:17.920Z,6.93
2024-05-09T18:07:23.725Z,6.78
2024-05-09T18:10:35.563Z,6.78
2024-05-09T18:13:45.863Z,6.55
2024-05-09T18:16:51.434Z,6.35
2024-05-09T18:19:54.479Z,6.30
2024-05-09T18:23:00.152Z,6.32
2024-05-09T18:26:03.340Z,5.88
2024-05-09T18:29:12.274Z,6.03
2024-05-09T18:32:18.202Z,6.20
2024-05-09T18:35:21.216Z,5.40
2024-05-09T18:38:27.108Z,6.85
2024-05-09T18:41:30.390Z,6.03
2024-05-09T18:44:38.653Z,6.00
2024-05-09T18:47:44.338Z,6.22
2024-05-09T18:50:48.433Z,5.57
2024-05-09T18:53:55.287Z,6.20
2024-05-09T18:56:58.272Z,5.53
2024-05-09T19:00:08.781Z,6.30
2024-05-09T19:03:16.635Z,5.75
2024-05-09T19:06:24.792Z,5.60
2024-05-09T19:09:27.976Z,6.38
2024-05-09T19:12:33.622Z,6.05
2024-05-09T19:15:40.138Z,6.10
2024-05-09T19:18:46.407Z,5.72
2024-05-09T19:21:49.578Z,5.80
2024-05-09T19:24:55.605Z,5.85
2024-05-09T19:27:58.682Z,5.72
2024-05-09T19:31:07.156Z,6.22
2024-05-09T19:34:10.263Z,5.55
2024-05-09T19:37:16.090Z,5.30
2024-05-09T19:40:25.130Z,5.82
2024-05-09T19:43:36.799Z,5.75
2024-05-09T19:46:42.505Z,6.00
2024-05-09T19:49:48.335Z,5.20
2024-05-09T19:52:51.256Z,5.97
2024-05-09T19:55:58.041Z,6.32
2024-05-09T19:59:04.341Z,6.18
2024-05-09T20:02:10.104Z,5.75
2024-05-09T20:05:15.909Z,5.85
2024-05-09T20:08:18.950Z,5.43
2024-05-09T20:11:24.970Z,5.80
2024-05-09T20:14:27.871Z,5.78
2024-05-09T20:17:36.216Z,7.38
2024-05-09T20:20:42.485Z,5.60
2024-05-09T20:23:49.690Z,5.47
2024-05-09T20:26:52.700Z,5.20
2024-05-09T20:29:58.561Z,5.70
2024-05-09T20:33:07.184Z,5.80
2024-05-09T20:36:14.201Z,5.80
2024-05-09T20:39:20.049Z,5.63
2024-05-09T20:42:25.678Z,6.28
2024-05-09T20:45:28.825Z,14.45
2024-05-09T20:48:37.268Z,10.57
2024-05-09T20:51:40.363Z,10.23
2024-05-09T20:54:46.131Z,7.03
2024-05-09T20:57:49.160Z,6.80
2024-05-09T21:00:54.878Z,6.82
2024-05-09T21:04:01.013Z,7.00
2024-05-09T21:07:07.100Z,6.30
2024-05-09T21:10:15.684Z,6.30
2024-05-09T21:13:25.321Z,6.40
2024-05-09T21:16:28.408Z,6.60
2024-05-09T21:19:36.947Z,6.65
2024-05-09T21:22:39.944Z,6.57
2024-05-09T21:25:45.533Z,6.68
2024-05-09T21:28:48.449Z,6.68
2024-05-09T21:31:54.191Z,6.88
2024-05-09T21:35:02.481Z,6.78
2024-05-09T21:38:05.949Z,6.82
2024-05-09T21:41:12.135Z,6.55
2024-05-09T21:44:15.129Z,6.57
2024-05-09T21:47:21.070Z,6.97
2024-05-09T21:50:36.881Z,7.30
2024-05-09T21:53:43.648Z,7.18
2024-05-09T21:56:49.278Z,7.43
2024-05-09T21:59:54.938Z,7.18
2024-05-09T22:02:58.172Z,7.32
2024-05-09T22:06:06.589Z,7.60
2024-05-09T22:09:09.581Z,8.10
2024-05-09T22:12:15.279Z,7.70
2024-05-09T22:15:18.212Z,7.40
2024-05-09T22:18:23.988Z,8.15
2024-05-09T22:21:29.686Z,7.72
2024-05-09T22:24:35.362Z,8.48
2024-05-09T22:27:38.326Z,8.38
2024-05-09T22:30:44.190Z,8.10
2024-05-09T22:33:50.146Z,8.20
2024-05-09T22:36:55.894Z,7.88
2024-05-09T22:40:03.213Z,8.45
2024-05-09T22:43:07.839Z,8.20
2024-05-09T22:46:13.597Z,7.88
2024-05-09T22:49:16.947Z,8.35
2024-05-09T22:52:25.270Z,8.13
2024-05-09T22:55:28.418Z,8.75
2024-05-09T22:58:34.576Z,8.93
2024-05-09T23:01:37.739Z,9.13
2024-05-09T23:04:43.565Z,8.93
2024-05-09T23:07:49.236Z,8.90
2024-05-09T23:10:55.106Z,8.32
2024-05-09T23:13:58.002Z,9.38
2024-05-09T23:17:03.706Z,8.68
2024-05-09T23:20:11.812Z,8.50
2024-05-09T23:23:20.593Z,8.88
2024-05-09T23:26:26.175Z,8.63
2024-05-09T23:29:29.114Z,8.88
2024-05-09T23:32:34.738Z,8.90
2024-05-09T23:35:37.952Z,9.23
2024-05-09T23:38:47.361Z,8.75
2024-05-09T23:41:50.296Z,8.50
2024-05-09T23:44:58.492Z,9.27
2024-05-09T23:48:01.723Z,8.13
2024-05-09T23:51:07.912Z,8.63
2024-05-09T23:54:13.546Z,9.63
2024-05-09T23:57:19.525Z,8.70
